sensor_id;sensor_type;location;lat;lon;timestamp;pressure;altitude;pressure_sealevel;temperature;humidity
56912;BME280;42800;53.928;27.662;2023-09-19T00:01:06;98891.53;;;16.76;100.00
56912;BME280;42800;53.928;27.662;2023-09-19T00:03:34;98996.41;;;16.66;100.00
56912;BME280;42800;53.928;27.662;2023-09-19T00:06:02;98769.31;;;16.46;100.00
56912;BME280;42800;53.928;27.662;2023-09-19T00:08:29;98617.13;;;16.74;100.00
56912;BME280;42800;53.928;27.662;2023-09-19T00:10:55;98751.44;;;16.85;100.00
56912;BME280;42800;53.928;27.662;2023-09-19T00:13:22;98826.22;;;16.82;100.00
56912;BME280;42800;53.928;27.662;2023-09-19T00:15:49;98714.41;;;16.72;100.00
56912;BME280;42800;53.928;27.662;2023-09-19T00:18:16;98772.91;;;16.74;100.00
56912;BME280;42800;53.928;27.662;2023-09-19T00:20:44;98683.16;;;16.75;100.00
56912;BME280;42800;53.928;27.662;2023-09-19T00:23:13;98589.31;;;16.84;100.00
56912;BME280;42800;53.928;27.662;2023-09-19T00:25:39;98653.88;;;16.78;100.00
56912;BME280;42800;53.928;27.662;2023-09-19T00:28:05;98583.31;;;16.89;100.00
56912;BME280;42800;53.928;27.662;2023-09-19T00:30:32;98559.78;;;16.74;100.00
56912;BME280;42800;53.928;27.662;2023-09-19T00:32:58;98519.84;;;16.75;100.00
56912;BME280;42800;53.928;27.662;2023-09-19T00:35:25;98574.81;;;16.77;100.00
56912;BME280;42800;53.928;27.662;2023-09-19T00:37:53;98717.81;;;16.56;100.00
56912;BME280;42800;53.928;27.662;2023-09-19T00:40:20;98661.94;;;16.65;100.00
56912;BME280;42800;53.928;27.662;2023-09-19T00:42:47;98559.09;;;16.43;100.00
56912;BME280;42800;53.928;27.662;2023-09-19T00:45:15;98559.72;;;16.54;100.00
56912;BME280;42800;53.928;27.662;2023-09-19T00:47:44;98587.75;;;16.29;100.00
56912;BME280;42800;53.928;27.662;2023-09-19T00:50:15;98521.19;;;16.16;100.00
56912;BME280;42800;53.928;27.662;2023-09-19T00:52:43;98564.63;;;16.16;100.00
56912;BME280;42800;53.928;27.662;2023-09-19T00:55:11;98376.78;;;16.48;100.00
56912;BME280;42800;53.928;27.662;2023-09-19T00:57:38;98309.78;;;16.61;100.00
56912;BME280;42800;53.928;27.662;2023-09-19T01:00:05;98276.13;;;16.42;100.00
56912;BME280;42800;53.928;27.662;2023-09-19T01:02:32;98315.78;;;16.36;100.00
56912;BME280;42800;53.928;27.662;2023-09-19T01:04:59;98202.91;;;16.67;100.00
56912;BME280;42800;53.928;27.662;2023-09-19T01:07:25;98167.75;;;16.47;100.00
56912;BME280;42800;53.928;27.662;2023-09-19T01:09:51;98152.28;;;16.50;100.00
56912;BME280;42800;53.928;27.662;2023-09-19T01:12:24;98150.41;;;16.27;100.00
56912;BME280;42800;53.928;27.662;2023-09-19T01:14:55;98150.41;;;16.63;100.00
56912;BME280;42800;53.928;27.662;2023-09-19T01:17:27;98147.00;;;16.56;100.00
56912;BME280;42800;53.928;27.662;2023-09-19T01:20:15;98134.66;;;16.44;100.00
56912;BME280;42800;53.928;27.662;2023-09-19T01:22:58;98118.91;;;16.41;100.00
56912;BME280;42800;53.928;27.662;2023-09-19T01:25:51;98111.75;;;16.43;100.00
56912;BME280;42800;53.928;27.662;2023-09-19T01:28:34;98121.63;;;16.24;100.00
56912;BME280;42800;53.928;27.662;2023-09-19T01:31:09;98115.84;;;16.35;100.00
56912;BME280;42800;53.928;27.662;2023-09-19T01:33:54;98126.06;;;16.38;100.00
56912;BME280;42800;53.928;27.662;2023-09-19T01:36:22;98105.16;;;16.37;100.00
56912;BME280;42800;53.928;27.662;2023-09-19T01:38:49;98089.47;;;16.14;100.00
56912;BME280;42800;53.928;27.662;2023-09-19T01:41:17;98094.22;;;16.14;100.00
56912;BME280;42800;53.928;27.662;2023-09-19T01:43:49;98111.03;;;16.03;100.00
56912;BME280;42800;53.928;27.662;2023-09-19T01:46:21;98091.69;;;16.03;100.00
56912;BME280;42800;53.928;27.662;2023-09-19T01:48:54;98096.16;;;16.33;100.00
56912;BME280;42800;53.928;27.662;2023-09-19T01:51:32;98106.06;;;15.94;100.00
56912;BME280;42800;53.928;27.662;2023-09-19T01:54:01;98099.00;;;15.93;100.00
56912;BME280;42800;53.928;27.662;2023-09-19T01:56:31;98078.44;;;15.94;100.00
56912;BME280;42800;53.928;27.662;2023-09-19T01:59:10;98063.44;;;16.12;100.00
56912;BME280;42800;53.928;27.662;2023-09-19T02:01:39;98050.25;;;15.83;100.00
56912;BME280;42800;53.928;27.662;2023-09-19T02:04:07;98061.03;;;16.14;100.00
56912;BME280;42800;53.928;27.662;2023-09-19T02:06:33;98026.53;;;16.02;100.00
56912;BME280;42800;53.928;27.662;2023-09-19T02:08:59;98034.09;;;16.34;100.00
56912;BME280;42800;53.928;27.662;2023-09-19T02:11:25;98000.97;;;16.14;100.00
56912;BME280;42800;53.928;27.662;2023-09-19T02:13:51;98027.09;;;15.77;100.00
56912;BME280;42800;53.928;27.662;2023-09-19T02:16:19;98026.44;;;16.06;100.00
56912;BME280;42800;53.928;27.662;2023-09-19T02:18:47;98011.13;;;15.85;100.00
56912;BME280;42800;53.928;27.662;2023-09-19T02:21:14;98038.97;;;15.54;100.00
56912;BME280;42800;53.928;27.662;2023-09-19T02:23:40;98041.59;;;15.81;100.00
56912;BME280;42800;53.928;27.662;2023-09-19T02:26:06;98049.38;;;15.46;100.00
56912;BME280;42800;53.928;27.662;2023-09-19T02:28:32;98035.97;;;15.65;100.00
56912;BME280;42800;53.928;27.662;2023-09-19T02:30:59;98026.94;;;15.44;100.00
56912;BME280;42800;53.928;27.662;2023-09-19T02:33:25;98044.72;;;15.43;100.00
56912;BME280;42800;53.928;27.662;2023-09-19T02:35:55;98067.59;;;15.44;100.00
56912;BME280;42800;53.928;27.662;2023-09-19T02:38:23;98072.38;;;15.20;100.00
56912;BME280;42800;53.928;27.662;2023-09-19T02:40:50;98125.06;;;15.05;100.00
56912;BME280;42800;53.928;27.662;2023-09-19T02:43:16;98100.25;;;15.25;100.00
56912;BME280;42800;53.928;27.662;2023-09-19T02:45:42;98148.78;;;14.76;100.00
56912;BME280;42800;53.928;27.662;2023-09-19T02:48:08;98237.03;;;14.79;100.00
56912;BME280;42800;53.928;27.662;2023-09-19T02:50:36;98218.34;;;14.91;100.00
56912;BME280;42800;53.928;27.662;2023-09-19T02:53:04;98208.34;;;15.00;100.00
56912;BME280;42800;53.928;27.662;2023-09-19T02:55:31;98254.66;;;14.86;100.00
56912;BME280;42800;53.928;27.662;2023-09-19T02:57:57;98201.56;;;14.78;100.00
56912;BME280;42800;53.928;27.662;2023-09-19T03:00:23;98296.22;;;14.75;100.00
56912;BME280;42800;53.928;27.662;2023-09-19T03:02:50;98318.47;;;14.61;100.00
56912;BME280;42800;53.928;27.662;2023-09-19T03:05:17;98295.97;;;14.62;100.00
56912;BME280;42800;53.928;27.662;2023-09-19T03:07:43;98305.03;;;14.63;100.00
56912;BME280;42800;53.928;27.662;2023-09-19T03:10:13;98324.72;;;14.65;100.00
56912;BME280;42800;53.928;27.662;2023-09-19T03:12:40;98375.28;;;14.54;100.00
56912;BME280;42800;53.928;27.662;2023-09-19T03:15:07;98335.91;;;14.50;100.00
56912;BME280;42800;53.928;27.662;2023-09-19T03:17:34;98399.16;;;14.68;100.00
56912;BME280;42800;53.928;27.662;2023-09-19T03:20:00;98327.56;;;14.57;100.00
56912;BME280;42800;53.928;27.662;2023-09-19T03:22:26;98334.19;;;14.64;100.00
56912;BME280;42800;53.928;27.662;2023-09-19T03:24:52;98390.06;;;14.30;100.00
56912;BME280;42800;53.928;27.662;2023-09-19T03:27:19;98396.25;;;14.41;100.00
56912;BME280;42800;53.928;27.662;2023-09-19T03:29:46;98403.91;;;14.26;100.00
56912;BME280;42800;53.928;27.662;2023-09-19T03:32:12;98457.66;;;14.45;100.00
56912;BME280;42800;53.928;27.662;2023-09-19T03:34:38;98423.47;;;14.35;100.00
56912;BME280;42800;53.928;27.662;2023-09-19T03:37:08;98474.72;;;14.29;100.00
56912;BME280;42800;53.928;27.662;2023-09-19T03:39:34;98479.03;;;14.34;100.00
56912;BME280;42800;53.928;27.662;2023-09-19T03:42:00;98453.84;;;14.32;100.00
56912;BME280;42800;53.928;27.662;2023-09-19T03:44:27;98506.38;;;14.14;100.00
56912;BME280;42800;53.928;27.662;2023-09-19T03:46:53;98498.50;;;14.12;100.00
56912;BME280;42800;53.928;27.662;2023-09-19T03:49:20;98425.38;;;14.42;100.00
56912;BME280;42800;53.928;27.662;2023-09-19T03:51:47;98433.56;;;14.08;100.00
56912;BME280;42800;53.928;27.662;2023-09-19T03:54:12;98474.50;;;14.13;100.00
56912;BME280;42800;53.928;27.662;2023-09-19T03:56:38;98534.81;;;14.00;100.00
56912;BME280;42800;53.928;27.662;2023-09-19T03:59:04;98550.88;;;14.16;100.00
56912;BME280;42800;53.928;27.662;2023-09-19T04:01:31;98494.66;;;14.03;100.00
56912;BME280;42800;53.928;27.662;2023-09-19T04:03:59;98552.97;;;13.94;100.00
56912;BME280;42800;53.928;27.662;2023-09-19T04:06:33;98516.34;;;13.94;100.00
56912;BME280;42800;53.928;27.662;2023-09-19T04:09:00;98566.66;;;14.05;100.00
56912;BME280;42800;53.928;27.662;2023-09-19T04:11:26;98499.00;;;14.00;100.00
56912;BME280;42800;53.928;27.662;2023-09-19T04:13:52;98502.63;;;13.79;100.00
56912;BME280;42800;53.928;27.662;2023-09-19T04:16:18;98446.91;;;14.17;100.00
56912;BME280;42800;53.928;27.662;2023-09-19T04:18:44;98464.91;;;13.76;100.00
56912;BME280;42800;53.928;27.662;2023-09-19T04:21:10;98600.69;;;13.73;100.00
56912;BME280;42800;53.928;27.662;2023-09-19T04:23:36;98530.19;;;13.79;100.00
56912;BME280;42800;53.928;27.662;2023-09-19T04:26:02;98482.47;;;14.00;100.00
56912;BME280;42800;53.928;27.662;2023-09-19T04:28:30;98464.34;;;13.96;100.00
56912;BME280;42800;53.928;27.662;2023-09-19T04:30:56;98422.84;;;14.21;100.00
56912;BME280;42800;53.928;27.662;2023-09-19T04:33:23;98293.72;;;14.16;100.00
56912;BME280;42800;53.928;27.662;2023-09-19T04:35:50;98286.34;;;14.43;100.00
56912;BME280;42800;53.928;27.662;2023-09-19T04:38:17;98142.34;;;15.10;100.00
56912;BME280;42800;53.928;27.662;2023-09-19T04:40:43;97970.09;;;15.27;100.00
56912;BME280;42800;53.928;27.662;2023-09-19T04:43:09;97934.44;;;16.05;100.00
56912;BME280;42800;53.928;27.662;2023-09-19T04:45:34;97945.78;;;16.27;100.00
56912;BME280;42800;53.928;27.662;2023-09-19T04:48:00;97957.94;;;15.97;100.00
56912;BME280;42800;53.928;27.662;2023-09-19T04:50:28;98024.16;;;16.69;100.00
56912;BME280;42800;53.928;27.662;2023-09-19T04:52:55;98062.38;;;17.07;100.00
56912;BME280;42800;53.928;27.662;2023-09-19T04:55:21;98114.06;;;17.72;100.00
56912;BME280;42800;53.928;27.662;2023-09-19T04:57:48;98222.78;;;18.09;100.00
56912;BME280;42800;53.928;27.662;2023-09-19T05:00:15;98247.56;;;17.54;100.00
56912;BME280;42800;53.928;27.662;2023-09-19T05:02:42;98249.56;;;17.86;100.00
56912;BME280;42800;53.928;27.662;2023-09-19T05:05:08;98212.97;;;17.30;100.00
56912;BME280;42800;53.928;27.662;2023-09-19T05:07:35;98234.84;;;17.57;100.00
56912;BME280;42800;53.928;27.662;2023-09-19T05:10:02;98324.06;;;18.59;100.00
56912;BME280;42800;53.928;27.662;2023-09-19T05:12:31;98289.75;;;17.95;100.00
56912;BME280;42800;53.928;27.662;2023-09-19T05:14:57;98315.56;;;18.37;100.00
56912;BME280;42800;53.928;27.662;2023-09-19T05:17:23;98347.03;;;19.18;100.00
56912;BME280;42800;53.928;27.662;2023-09-19T05:19:50;98424.09;;;19.01;100.00
56912;BME280;42800;53.928;27.662;2023-09-19T05:22:16;98440.50;;;19.24;100.00
56912;BME280;42800;53.928;27.662;2023-09-19T05:24:43;98470.53;;;19.97;100.00
56912;BME280;42800;53.928;27.662;2023-09-19T05:27:13;98465.94;;;20.29;100.00
56912;BME280;42800;53.928;27.662;2023-09-19T05:29:39;98510.72;;;20.60;100.00
56912;BME280;42800;53.928;27.662;2023-09-19T05:32:05;98511.44;;;20.86;100.00
56912;BME280;42800;53.928;27.662;2023-09-19T05:34:31;98534.31;;;21.37;100.00
56912;BME280;42800;53.928;27.662;2023-09-19T05:36:57;98525.97;;;21.03;100.00
56912;BME280;42800;53.928;27.662;2023-09-19T05:39:23;98515.13;;;20.70;100.00
56912;BME280;42800;53.928;27.662;2023-09-19T05:41:49;98505.84;;;20.86;100.00
56912;BME280;42800;53.928;27.662;2023-09-19T05:44:15;98538.81;;;21.57;100.00
56912;BME280;42800;53.928;27.662;2023-09-19T05:46:41;98551.66;;;22.07;100.00
56912;BME280;42800;53.928;27.662;2023-09-19T05:49:07;98542.44;;;21.32;100.00
56912;BME280;42800;53.928;27.662;2023-09-19T05:51:34;98551.97;;;20.87;100.00
56912;BME280;42800;53.928;27.662;2023-09-19T05:54:00;98528.78;;;21.25;100.00
56912;BME280;42800;53.928;27.662;2023-09-19T05:56:27;98519.56;;;20.80;100.00
56912;BME280;42800;53.928;27.662;2023-09-19T05:58:53;98520.28;;;20.33;100.00
56912;BME280;42800;53.928;27.662;2023-09-19T06:01:19;98474.78;;;19.76;100.00
56912;BME280;42800;53.928;27.662;2023-09-19T06:03:45;98473.97;;;20.39;100.00
56912;BME280;42800;53.928;27.662;2023-09-19T06:06:11;98442.47;;;19.11;100.00
56912;BME280;42800;53.928;27.662;2023-09-19T06:08:37;98457.53;;;19.94;100.00
56912;BME280;42800;53.928;27.662;2023-09-19T06:11:03;98498.03;;;21.15;100.00
56912;BME280;42800;53.928;27.662;2023-09-19T06:13:30;98520.72;;;20.32;100.00
56912;BME280;42800;53.928;27.662;2023-09-19T06:15:59;98482.97;;;20.43;100.00
56912;BME280;42800;53.928;27.662;2023-09-19T06:18:28;98523.88;;;21.51;100.00
56912;BME280;42800;53.928;27.662;2023-09-19T06:20:59;98534.09;;;21.32;100.00
56912;BME280;42800;53.928;27.662;2023-09-19T06:23:25;98532.13;;;21.54;100.00
56912;BME280;42800;53.928;27.662;2023-09-19T06:25:51;98554.09;;;22.05;100.00
56912;BME280;42800;53.928;27.662;2023-09-19T06:28:18;98570.34;;;23.10;100.00
56912;BME280;42800;53.928;27.662;2023-09-19T06:30:49;98568.91;;;22.55;100.00
56912;BME280;42800;53.928;27.662;2023-09-19T06:33:15;98556.66;;;23.12;100.00
56912;BME280;42800;53.928;27.662;2023-09-19T06:35:43;98553.66;;;22.38;100.00
56912;BME280;42800;53.928;27.662;2023-09-19T06:38:12;98568.94;;;23.60;100.00
56912;BME280;42800;53.928;27.662;2023-09-19T06:40:38;98569.88;;;22.62;100.00
56912;BME280;42800;53.928;27.662;2023-09-19T06:43:05;98579.47;;;23.93;100.00
56912;BME280;42800;53.928;27.662;2023-09-19T06:45:32;98588.25;;;24.19;100.00
56912;BME280;42800;53.928;27.662;2023-09-19T06:47:58;98585.88;;;23.66;100.00
56912;BME280;42800;53.928;27.662;2023-09-19T06:50:25;98581.22;;;23.44;100.00
56912;BME280;42800;53.928;27.662;2023-09-19T06:52:54;98580.38;;;23.99;100.00
56912;BME280;42800;53.928;27.662;2023-09-19T06:55:21;98576.16;;;24.55;100.00
56912;BME280;42800;53.928;27.662;2023-09-19T06:57:50;98562.09;;;23.43;100.00
56912;BME280;42800;53.928;27.662;2023-09-19T07:00:16;98548.53;;;22.86;100.00
56912;BME280;42800;53.928;27.662;2023-09-19T07:02:43;98550.63;;;22.54;100.00
56912;BME280;42800;53.928;27.662;2023-09-19T07:05:10;98538.59;;;22.36;100.00
56912;BME280;42800;53.928;27.662;2023-09-19T07:07:35;98546.19;;;22.85;100.00
56912;BME280;42800;53.928;27.662;2023-09-19T07:10:02;98556.50;;;23.80;100.00
56912;BME280;42800;53.928;27.662;2023-09-19T07:12:30;98568.94;;;24.30;100.00
56912;BME280;42800;53.928;27.662;2023-09-19T07:14:56;98573.81;;;25.35;100.00
56912;BME280;42800;53.928;27.662;2023-09-19T07:17:22;98576.03;;;23.98;100.00
56912;BME280;42800;53.928;27.662;2023-09-19T07:19:49;98575.41;;;24.79;100.00
56912;BME280;42800;53.928;27.662;2023-09-19T07:22:15;98574.94;;;25.67;99.01
56912;BME280;42800;53.928;27.662;2023-09-19T07:24:41;98569.75;;;24.64;100.00
56912;BME280;42800;53.928;27.662;2023-09-19T07:27:08;98564.59;;;23.59;100.00
56912;BME280;42800;53.928;27.662;2023-09-19T07:29:35;98565.09;;;24.61;100.00
56912;BME280;42800;53.928;27.662;2023-09-19T07:32:01;98561.47;;;24.94;100.00
56912;BME280;42800;53.928;27.662;2023-09-19T07:34:27;98565.09;;;24.61;100.00
56912;BME280;42800;53.928;27.662;2023-09-19T07:36:52;98572.16;;;25.67;100.00
56912;BME280;42800;53.928;27.662;2023-09-19T07:39:18;98560.59;;;25.50;100.00
56912;BME280;42800;53.928;27.662;2023-09-19T07:41:45;98562.59;;;24.63;100.00
56912;BME280;42800;53.928;27.662;2023-09-19T07:44:12;98562.88;;;25.76;95.21
56912;BME280;42800;53.928;27.662;2023-09-19T07:46:40;98553.44;;;25.79;93.95
56912;BME280;42800;53.928;27.662;2023-09-19T07:49:06;98558.41;;;26.99;91.69
56912;BME280;42800;53.928;27.662;2023-09-19T07:51:33;98572.25;;;27.64;83.10
56912;BME280;42800;53.928;27.662;2023-09-19T07:53:59;98554.78;;;27.13;89.89
56912;BME280;42800;53.928;27.662;2023-09-19T07:56:25;98553.50;;;26.59;94.71
56912;BME280;42800;53.928;27.662;2023-09-19T07:58:52;98554.47;;;27.32;88.36
56912;BME280;42800;53.928;27.662;2023-09-19T08:01:19;98556.63;;;27.63;88.09
56912;BME280;42800;53.928;27.662;2023-09-19T08:03:49;98546.06;;;26.41;93.96
56912;BME280;42800;53.928;27.662;2023-09-19T08:06:15;98539.06;;;25.18;100.00
56912;BME280;42800;53.928;27.662;2023-09-19T08:08:42;98527.41;;;25.78;100.00
56912;BME280;42800;53.928;27.662;2023-09-19T08:11:08;98528.34;;;25.46;99.86
56912;BME280;42800;53.928;27.662;2023-09-19T08:13:37;98526.50;;;25.96;94.87
56912;BME280;42800;53.928;27.662;2023-09-19T08:16:06;98512.34;;;25.91;99.40
56912;BME280;42800;53.928;27.662;2023-09-19T08:18:33;98523.97;;;26.84;92.48
56912;BME280;42800;53.928;27.662;2023-09-19T08:20:59;98523.13;;;26.78;94.36
56912;BME280;42800;53.928;27.662;2023-09-19T08:23:26;98520.00;;;25.90;97.68
56912;BME280;42800;53.928;27.662;2023-09-19T08:25:56;98510.16;;;25.41;100.00
56912;BME280;42800;53.928;27.662;2023-09-19T08:28:22;98499.66;;;25.80;98.16
56912;BME280;42800;53.928;27.662;2023-09-19T08:30:49;98508.16;;;26.16;98.07
56912;BME280;42800;53.928;27.662;2023-09-19T08:33:16;98510.59;;;25.93;100.00
56912;BME280;42800;53.928;27.662;2023-09-19T08:35:42;98506.88;;;26.87;97.09
56912;BME280;42800;53.928;27.662;2023-09-19T08:38:10;98506.53;;;26.44;92.43
56912;BME280;42800;53.928;27.662;2023-09-19T08:40:37;98500.44;;;25.96;99.25
56912;BME280;42800;53.928;27.662;2023-09-19T08:43:05;98504.13;;;27.34;85.61
56912;BME280;42800;53.928;27.662;2023-09-19T08:45:32;98503.47;;;26.27;91.37
56912;BME280;42800;53.928;27.662;2023-09-19T08:48:07;98507.94;;;27.57;86.90
56912;BME280;42800;53.928;27.662;2023-09-19T08:50:42;98502.09;;;27.60;85.41
56912;BME280;42800;53.928;27.662;2023-09-19T08:53:11;98492.75;;;26.11;96.52
56912;BME280;42800;53.928;27.662;2023-09-19T08:55:39;98497.66;;;26.87;90.26
56912;BME280;42800;53.928;27.662;2023-09-19T08:58:09;98497.72;;;27.33;88.56
56912;BME280;42800;53.928;27.662;2023-09-19T09:00:36;98497.88;;;26.63;92.05
56912;BME280;42800;53.928;27.662;2023-09-19T09:03:04;98493.97;;;27.42;85.11
56912;BME280;42800;53.928;27.662;2023-09-19T09:05:32;98506.03;;;27.02;88.31
56912;BME280;42800;53.928;27.662;2023-09-19T09:08:00;98502.66;;;27.18;87.42
56912;BME280;42800;53.928;27.662;2023-09-19T09:10:28;98499.59;;;27.94;84.49
56912;BME280;42800;53.928;27.662;2023-09-19T09:12:54;98493.59;;;28.50;82.00
56912;BME280;42800;53.928;27.662;2023-09-19T09:15:22;98488.72;;;26.88;87.21
56912;BME280;42800;53.928;27.662;2023-09-19T09:17:50;98492.19;;;27.71;82.13
56912;BME280;42800;53.928;27.662;2023-09-19T09:20:18;98485.28;;;26.79;90.05
56912;BME280;42800;53.928;27.662;2023-09-19T09:22:52;98485.81;;;25.92;92.68
56912;BME280;42800;53.928;27.662;2023-09-19T09:25:19;98477.56;;;25.73;95.23
56912;BME280;42800;53.928;27.662;2023-09-19T09:27:58;98475.66;;;26.29;96.63
56912;BME280;42800;53.928;27.662;2023-09-19T09:30:33;98466.16;;;26.62;90.95
56912;BME280;42800;53.928;27.662;2023-09-19T09:33:08;98473.56;;;26.80;92.03
56912;BME280;42800;53.928;27.662;2023-09-19T09:35:36;98468.91;;;27.44;87.67
56912;BME280;42800;53.928;27.662;2023-09-19T09:38:03;98472.84;;;28.15;84.88
56912;BME280;42800;53.928;27.662;2023-09-19T09:40:45;98474.81;;;28.04;83.27
56912;BME280;42800;53.928;27.662;2023-09-19T09:43:28;98469.34;;;26.70;87.34
56912;BME280;42800;53.928;27.662;2023-09-19T09:46:12;98463.00;;;27.16;87.64
56912;BME280;42800;53.928;27.662;2023-09-19T09:48:57;98449.88;;;26.87;90.01
56912;BME280;42800;53.928;27.662;2023-09-19T09:51:38;98452.66;;;27.07;89.51
56912;BME280;42800;53.928;27.662;2023-09-19T09:54:11;98455.41;;;26.61;90.13
56912;BME280;42800;53.928;27.662;2023-09-19T09:56:52;98445.84;;;25.23;98.54
56912;BME280;42800;53.928;27.662;2023-09-19T09:59:18;98450.38;;;25.50;97.98
56912;BME280;42800;53.928;27.662;2023-09-19T10:01:49;98447.09;;;25.66;94.98
56912;BME280;42800;53.928;27.662;2023-09-19T10:04:27;98445.44;;;26.24;95.43
56912;BME280;42800;53.928;27.662;2023-09-19T10:06:54;98444.75;;;26.29;90.57
56912;BME280;42800;53.928;27.662;2023-09-19T10:09:20;98451.19;;;26.15;92.12
56912;BME280;42800;53.928;27.662;2023-09-19T10:12:03;98439.44;;;25.81;93.32
56912;BME280;42800;53.928;27.662;2023-09-19T10:14:33;98440.41;;;25.64;96.11
56912;BME280;42800;53.928;27.662;2023-09-19T10:17:02;98431.53;;;26.15;91.02
56912;BME280;42800;53.928;27.662;2023-09-19T10:19:37;98446.47;;;26.62;87.73
56912;BME280;42800;53.928;27.662;2023-09-19T10:22:05;98437.19;;;25.11;95.54
56912;BME280;42800;53.928;27.662;2023-09-19T10:24:33;98424.53;;;25.46;94.38
56912;BME280;42800;53.928;27.662;2023-09-19T10:27:02;98431.59;;;26.21;87.83
56912;BME280;42800;53.928;27.662;2023-09-19T10:29:32;98422.59;;;26.72;89.56
56912;BME280;42800;53.928;27.662;2023-09-19T10:32:03;98428.88;;;25.91;88.94
56912;BME280;42800;53.928;27.662;2023-09-19T10:34:34;98427.63;;;25.48;87.33
56912;BME280;42800;53.928;27.662;2023-09-19T10:37:02;98411.47;;;25.87;87.70
56912;BME280;42800;53.928;27.662;2023-09-19T10:39:31;98428.22;;;26.72;82.81
56912;BME280;42800;53.928;27.662;2023-09-19T10:42:02;98411.88;;;25.50;85.24
56912;BME280;42800;53.928;27.662;2023-09-19T10:44:32;98398.22;;;25.28;89.15
56912;BME280;42800;53.928;27.662;2023-09-19T10:46:59;98407.03;;;25.51;88.48
56912;BME280;42800;53.928;27.662;2023-09-19T10:49:25;98412.50;;;25.75;82.41
56912;BME280;42800;53.928;27.662;2023-09-19T10:51:55;98407.81;;;25.66;79.36
56912;BME280;42800;53.928;27.662;2023-09-19T10:54:27;98410.41;;;25.55;78.08
56912;BME280;42800;53.928;27.662;2023-09-19T10:56:55;98418.75;;;24.96;79.50
56912;BME280;42800;53.928;27.662;2023-09-19T10:59:24;98409.31;;;24.93;81.93
56912;BME280;42800;53.928;27.662;2023-09-19T11:01:52;98401.44;;;25.36;82.19
56912;BME280;42800;53.928;27.662;2023-09-19T11:04:26;98414.84;;;25.91;76.01
56912;BME280;42800;53.928;27.662;2023-09-19T11:07:03;98405.31;;;25.24;78.87
56912;BME280;42800;53.928;27.662;2023-09-19T11:09:46;98401.22;;;25.69;79.98
56912;BME280;42800;53.928;27.662;2023-09-19T11:12:12;98404.94;;;24.92;83.59
56912;BME280;42800;53.928;27.662;2023-09-19T11:14:42;98399.97;;;25.41;85.85
56912;BME280;42800;53.928;27.662;2023-09-19T11:17:42;98385.53;;;25.63;87.45
56912;BME280;42800;53.928;27.662;2023-09-19T11:20:21;98393.72;;;24.92;85.89
56912;BME280;42800;53.928;27.662;2023-09-19T11:23:18;98399.25;;;24.38;86.71
56912;BME280;42800;53.928;27.662;2023-09-19T11:25:48;98399.22;;;24.48;87.53
56912;BME280;42800;53.928;27.662;2023-09-19T11:28:33;98401.47;;;24.10;86.58
56912;BME280;42800;53.928;27.662;2023-09-19T11:34:46;98399.41;;;24.20;87.48
56912;BME280;42800;53.928;27.662;2023-09-19T11:40:44;98395.22;;;24.63;87.16
56912;BME280;42800;53.928;27.662;2023-09-19T11:43:30;98380.38;;;24.24;91.13
56912;BME280;42800;53.928;27.662;2023-09-19T11:46:08;98378.25;;;24.82;86.75
56912;BME280;42800;53.928;27.662;2023-09-19T11:48:40;98388.69;;;24.81;90.12
56912;BME280;42800;53.928;27.662;2023-09-19T11:51:15;98377.00;;;24.98;92.56
56912;BME280;42800;53.928;27.662;2023-09-19T11:53:45;98371.72;;;25.00;87.93
56912;BME280;42800;53.928;27.662;2023-09-19T11:56:14;98383.09;;;24.42;94.46
56912;BME280;42800;53.928;27.662;2023-09-19T11:58:41;98375.88;;;24.65;93.73
56912;BME280;42800;53.928;27.662;2023-09-19T12:01:08;98373.75;;;24.60;90.97
56912;BME280;42800;53.928;27.662;2023-09-19T12:03:42;98368.09;;;24.70;90.84
56912;BME280;42800;53.928;27.662;2023-09-19T12:06:14;98368.59;;;24.44;89.92
56912;BME280;42800;53.928;27.662;2023-09-19T12:08:41;98361.09;;;24.65;88.58
56912;BME280;42800;53.928;27.662;2023-09-19T12:11:12;98369.13;;;24.33;90.95
56912;BME280;42800;53.928;27.662;2023-09-19T12:13:44;98361.72;;;24.45;90.91
56912;BME280;42800;53.928;27.662;2023-09-19T12:16:14;98360.44;;;24.70;89.86
56912;BME280;42800;53.928;27.662;2023-09-19T12:18:41;98364.84;;;24.47;92.53
56912;BME280;42800;53.928;27.662;2023-09-19T12:21:21;98358.72;;;24.73;94.54
56912;BME280;42800;53.928;27.662;2023-09-19T12:23:57;98358.81;;;24.78;90.91
56912;BME280;42800;53.928;27.662;2023-09-19T12:26:23;98352.47;;;24.93;92.18
56912;BME280;42800;53.928;27.662;2023-09-19T12:28:49;98359.25;;;25.16;90.79
56912;BME280;42800;53.928;27.662;2023-09-19T12:31:18;98347.75;;;25.14;90.03
56912;BME280;42800;53.928;27.662;2023-09-19T12:33:45;98357.00;;;24.90;89.60
56912;BME280;42800;53.928;27.662;2023-09-19T12:36:20;98352.31;;;25.26;90.39
56912;BME280;42800;53.928;27.662;2023-09-19T12:38:50;98350.13;;;24.76;90.78
56912;BME280;42800;53.928;27.662;2023-09-19T12:41:19;98345.09;;;24.80;91.55
56912;BME280;42800;53.928;27.662;2023-09-19T12:43:46;98348.94;;;24.68;94.64
56912;BME280;42800;53.928;27.662;2023-09-19T12:46:12;98346.50;;;25.15;94.34
56912;BME280;42800;53.928;27.662;2023-09-19T12:48:38;98336.56;;;24.60;93.52
56912;BME280;42800;53.928;27.662;2023-09-19T12:51:10;98344.56;;;24.28;95.87
56912;BME280;42800;53.928;27.662;2023-09-19T12:53:39;98337.06;;;24.88;92.46
56912;BME280;42800;53.928;27.662;2023-09-19T12:56:08;98340.59;;;24.59;94.47
56912;BME280;42800;53.928;27.662;2023-09-19T12:58:48;98329.22;;;24.38;98.18